Time;durP1;ratioP1;P1;durP2;ratioP2;P2;SDS_P1;SDS_P2;PMS_P1;PMS_P2;Temp;Humidity;BMP_temperature;BMP_pressure;BME280_temperature;BME280_humidity;BME280_pressure;Samples;Min_cycle;Max_cycle;Signal;HPM_P1;HPM_P2
2023/08/04 00:03:05;;;;;;;1.98;0.30;;;;;;;;;;10123063;29;20051;-88
2023/08/04 00:08:09;;;;;;;0.20;0.20;;;;;;;;;;10129078;29;20135;-87
2023/08/04 00:13:12;;;;;;;1.13;0.30;;;;;;;;;;10114482;29;20049;-87
2023/08/04 00:18:17;;;;;;;0.70;0.50;;;;;;;;;;10128968;29;20110;-87
2023/08/04 00:23:21;;;;;;;1.15;0.30;;;;;;;;;;10118587;29;20060;-87
2023/08/04 00:28:24;;;;;;;0.57;0.40;;;;;;;;;;10141821;29;20055;-87
2023/08/04 00:33:30;;;;;;;1.13;0.40;;;;;;;;;;10119207;29;20108;-87
2023/08/04 00:38:34;;;;;;;0.88;0.40;;;;;;;;;;10134402;29;20104;-87
2023/08/04 00:43:37;;;;;;;2.00;0.50;;;;;;;;;;10118446;29;20109;-90
2023/08/04 00:48:42;;;;;;;0.90;0.60;;;;;;;;;;10122092;29;20052;-89
2023/08/04 00:53:46;;;;;;;3.23;0.73;;;;;;;;;;10123509;29;20056;-88
2023/08/04 00:58:50;;;;;;;2.17;0.88;;;;;;;;;;10126432;29;20056;-89
2023/08/04 01:03:57;;;;;;;2.35;0.80;;;;;;;;;;10126209;29;20049;-89
2023/08/04 01:09:10;;;;;;;1.33;0.90;;;;;;;;;;10128367;29;20041;-89
2023/08/04 01:14:15;;;;;;;4.80;0.90;;;;;;;;;;10127571;29;20063;-87
2023/08/04 01:19:20;;;;;;;2.80;0.97;;;;;;;;;;10125676;29;20052;-85
2023/08/04 01:24:39;;;;;;;2.10;0.70;;;;;;;;;;9952318;29;20631;-85
2023/08/04 01:29:45;;;;;;;2.13;0.83;;;;;;;;;;9963881;29;20054;-87
2023/08/04 01:34:49;;;;;;;2.28;0.77;;;;;;;;;;9969130;29;20527;-87
2023/08/04 01:39:54;;;;;;;1.40;0.65;;;;;;;;;;9970552;29;20118;-87
2023/08/04 01:45:23;;;;;;;1.08;0.63;;;;;;;;;;9973733;23;20057;31
2023/08/04 01:50:26;;;;;;;0.80;0.80;;;;;;;;;;10049451;29;20118;-84
2023/08/04 01:55:31;;;;;;;1.45;0.68;;;;;;;;;;10065507;29;20067;-85
2023/08/04 02:00:35;;;;;;;1.80;0.75;;;;;;;;;;10078285;29;20489;-85
2023/08/04 02:05:46;;;;;;;1.73;0.88;;;;;;;;;;10053198;29;20110;-85
2023/08/04 02:10:51;;;;;;;1.30;0.88;;;;;;;;;;10072749;29;20110;-84
2023/08/04 02:15:57;;;;;;;1.33;0.90;;;;;;;;;;10032285;29;20054;-85
2023/08/04 02:21:01;;;;;;;0.98;0.88;;;;;;;;;;10059050;29;20045;-86
2023/08/04 02:26:06;;;;;;;1.63;0.90;;;;;;;;;;10074789;29;20106;-84
2023/08/04 02:31:09;;;;;;;1.48;1.08;;;;;;;;;;10056505;29;20045;-83
2023/08/04 02:36:14;;;;;;;0.98;0.77;;;;;;;;;;10067877;29;20072;-83
2023/08/04 02:41:18;;;;;;;1.80;1.10;;;;;;;;;;10087103;29;20321;-84
2023/08/04 02:46:25;;;;;;;1.38;1.20;;;;;;;;;;10066189;29;20466;-84
2023/08/04 02:51:29;;;;;;;1.08;0.93;;;;;;;;;;10076002;29;20409;-84
2023/08/04 02:56:34;;;;;;;2.83;1.50;;;;;;;;;;10079232;29;20520;-84
2023/08/04 03:01:37;;;;;;;4.43;1.58;;;;;;;;;;10089047;29;20132;-84
2023/08/04 03:06:41;;;;;;;1.63;1.10;;;;;;;;;;10079637;29;20148;-84
2023/08/04 03:11:46;;;;;;;1.63;1.20;;;;;;;;;;10075027;29;20120;-84
2023/08/04 03:16:51;;;;;;;1.53;1.43;;;;;;;;;;10093805;29;20120;-84
2023/08/04 03:21:54;;;;;;;1.50;1.27;;;;;;;;;;10054523;29;20059;-83
2023/08/04 03:26:59;;;;;;;1.35;1.15;;;;;;;;;;10076852;29;20065;-84
2023/08/04 03:32:03;;;;;;;1.45;1.10;;;;;;;;;;10069202;29;20100;-83
2023/08/04 03:37:07;;;;;;;1.10;1.00;;;;;;;;;;10070713;29;20547;-84
2023/08/04 03:42:12;;;;;;;1.73;1.27;;;;;;;;;;10084224;29;20049;-83
2023/08/04 03:47:15;;;;;;;1.40;1.10;;;;;;;;;;10079520;29;20053;-85
2023/08/04 03:52:19;;;;;;;1.02;0.90;;;;;;;;;;10074902;29;20063;-85
2023/08/04 03:57:24;;;;;;;1.83;1.20;;;;;;;;;;10089692;29;20492;-86
2023/08/04 04:02:28;;;;;;;1.43;1.33;;;;;;;;;;10077290;29;20049;-85
2023/08/04 04:07:31;;;;;;;1.20;1.10;;;;;;;;;;10071658;29;20052;-84
2023/08/04 04:12:36;;;;;;;1.15;1.00;;;;;;;;;;10064063;29;20041;-85
2023/08/04 04:17:39;;;;;;;1.48;1.00;;;;;;;;;;10061426;29;20093;-85
2023/08/04 04:22:43;;;;;;;2.60;1.33;;;;;;;;;;10065530;29;20068;-85
2023/08/04 04:27:48;;;;;;;3.58;1.70;;;;;;;;;;10086970;29;20105;-83
2023/08/04 04:32:55;;;;;;;1.52;1.30;;;;;;;;;;10075904;29;20057;-85
2023/08/04 04:37:59;;;;;;;2.35;1.38;;;;;;;;;;10078436;29;20057;-85
2023/08/04 04:43:06;;;;;;;2.70;1.60;;;;;;;;;;10079979;29;20109;-84
2023/08/04 04:48:10;;;;;;;;;;;;;;;;;;10074003;29;20120;-85
2023/08/04 04:53:16;;;;;;;3.47;1.10;;;;;;;;;;10077944;29;20451;-86
2023/08/04 04:58:21;;;;;;;1.17;1.05;;;;;;;;;;10068329;29;20045;-86
2023/08/04 05:03:26;;;;;;;1.88;1.10;;;;;;;;;;10076773;29;20041;-85
2023/08/04 05:08:29;;;;;;;1.60;1.48;;;;;;;;;;10068064;29;20505;-84
2023/08/04 05:13:40;;;;;;;1.75;1.20;;;;;;;;;;10095745;29;20413;-85
2023/08/04 05:18:44;;;;;;;1.88;1.20;;;;;;;;;;10088293;29;20576;-85
2023/08/04 05:23:48;;;;;;;1.95;1.10;;;;;;;;;;10079831;29;20109;-85
2023/08/04 05:28:54;;;;;;;1.80;1.25;;;;;;;;;;10079928;29;20715;-85
2023/08/04 05:34:00;;;;;;;2.20;1.58;;;;;;;;;;10073086;29;20097;-85
2023/08/04 05:39:04;;;;;;;2.50;1.70;;;;;;;;;;10079725;29;20484;-85
2023/08/04 05:44:09;;;;;;;2.97;2.17;;;;;;;;;;10099980;29;20079;-85
2023/08/04 05:49:13;;;;;;;2.30;2.10;;;;;;;;;;10080826;29;20133;-84
2023/08/04 05:54:19;;;;;;;3.30;2.58;;;;;;;;;;10081621;29;20048;-86
2023/08/04 05:59:24;;;;;;;5.78;2.78;;;;;;;;;;10086815;29;20509;-85
2023/08/04 06:04:33;;;;;;;4.60;2.80;;;;;;;;;;10086003;29;20083;-85
2023/08/04 06:09:37;;;;;;;3.90;2.80;;;;;;;;;;10101174;29;20101;-85
2023/08/04 06:14:48;;;;;;;4.28;2.63;;;;;;;;;;10083248;29;20432;-85
2023/08/04 06:19:52;;;;;;;6.43;3.08;;;;;;;;;;10090694;29;20113;-84
2023/08/04 06:24:59;;;;;;;3.65;2.70;;;;;;;;;;10061164;29;20516;-86
2023/08/04 06:30:04;;;;;;;4.03;2.65;;;;;;;;;;10089548;29;20061;-87
2023/08/04 06:35:13;;;;;;;3.90;3.00;;;;;;;;;;10077639;29;20056;-87
2023/08/04 06:40:17;;;;;;;3.83;2.78;;;;;;;;;;10072425;29;20140;-87
2023/08/04 06:45:23;;;;;;;5.10;2.75;;;;;;;;;;10088535;29;20041;-87
2023/08/04 06:50:27;;;;;;;3.22;2.90;;;;;;;;;;10075874;29;20059;-88
2023/08/04 06:55:33;;;;;;;3.63;2.40;;;;;;;;;;10106236;29;20409;-89
2023/08/04 07:00:39;;;;;;;3.97;2.58;;;;;;;;;;10079321;29;20064;-88
2023/08/04 07:05:42;;;;;;;3.60;2.38;;;;;;;;;;10094861;29;20049;-87
2023/08/04 07:10:49;;;;;;;2.75;2.38;;;;;;;;;;10072969;29;20049;-89
2023/08/04 07:16:00;;;;;;;4.10;2.90;;;;;;;;;;10078358;29;20049;-88
2023/08/04 07:21:08;;;;;;;3.83;2.95;;;;;;;;;;10080552;29;20441;-87
2023/08/04 07:26:11;;;;;;;5.80;2.88;;;;;;;;;;10089867;29;20056;-87
2023/08/04 07:31:21;;;;;;;2.78;2.42;;;;;;;;;;10075024;29;20061;-88
2023/08/04 07:36:25;;;;;;;4.38;2.88;;;;;;;;;;10084010;29;20068;-87
2023/08/04 07:41:36;;;;;;;3.70;2.97;;;;;;;;;;10084722;29;20108;-88
2023/08/04 07:46:41;;;;;;;4.18;2.90;;;;;;;;;;10078550;29;20117;-87
2023/08/04 07:51:47;;;;;;;4.30;3.10;;;;;;;;;;10079325;29;20528;-87
2023/08/04 07:56:50;;;;;;;3.28;2.95;;;;;;;;;;10068531;29;20059;-88
2023/08/04 08:02:00;;;;;;;4.53;3.50;;;;;;;;;;10081995;29;20080;-88
2023/08/04 08:07:04;;;;;;;3.97;3.13;;;;;;;;;;10081699;29;20049;-88
2023/08/04 08:12:15;;;;;;;3.97;3.20;;;;;;;;;;10075875;29;20045;-88
2023/08/04 08:17:20;;;;;;;3.70;3.13;;;;;;;;;;10133700;23;20059;-87
2023/08/04 08:22:29;;;;;;;4.18;3.05;;;;;;;;;;10178979;29;20107;-86
2023/08/04 08:27:33;;;;;;;4.90;2.85;;;;;;;;;;10135669;29;20052;-87
2023/08/04 08:32:47;;;;;;;6.10;3.60;;;;;;;;;;10126685;29;20057;-87
2023/08/04 08:37:56;;;;;;;3.63;3.17;;;;;;;;;;10134513;29;20059;-88
2023/08/04 08:43:00;;;;;;;5.75;3.88;;;;;;;;;;10141940;29;20396;-86
2023/08/04 08:48:08;;;;;;;7.32;3.70;;;;;;;;;;10147804;29;20056;-87
2023/08/04 08:53:15;;;;;;;8.20;4.65;;;;;;;;;;10134824;29;20059;-87
2023/08/04 08:58:31;;;;;;;3.75;3.20;;;;;;;;;;10128313;29;20472;-87
2023/08/04 09:03:38;;;;;;;4.13;3.47;;;;;;;;;;10128273;29;20092;-87
2023/08/04 09:08:46;;;;;;;3.92;3.42;;;;;;;;;;10137841;29;20091;-87
2023/08/04 09:13:54;;;;;;;3.55;3.15;;;;;;;;;;10129483;29;20118;-87
2023/08/04 09:19:04;;;;;;;3.55;3.15;;;;;;;;;;10132415;29;20147;-87
2023/08/04 09:24:11;;;;;;;3.60;2.60;;;;;;;;;;10134732;29;20716;-89
2023/08/04 09:29:15;;;;;;;4.15;2.50;;;;;;;;;;10120484;29;20597;-87
2023/08/04 09:34:23;;;;;;;4.07;3.08;;;;;;;;;;10109650;29;20061;-87
2023/08/04 09:39:27;;;;;;;4.03;3.13;;;;;;;;;;10116740;29;20587;-88
2023/08/04 09:44:37;;;;;;;2.63;2.40;;;;;;;;;;10116034;29;20056;-88
2023/08/04 09:49:45;;;;;;;6.15;3.13;;;;;;;;;;10116281;29;20045;-89
2023/08/04 09:54:59;;;;;;;4.50;2.65;;;;;;;;;;10120709;29;20116;-89
2023/08/04 10:00:11;;;;;;;4.78;3.58;;;;;;;;;;10129433;29;20049;-92
2023/08/04 10:05:17;;;;;;;6.00;3.35;;;;;;;;;;10111289;29;20071;-89
2023/08/04 10:10:30;;;;;;;3.78;2.88;;;;;;;;;;10135124;29;20812;-89
2023/08/04 10:15:38;;;;;;;3.30;2.50;;;;;;;;;;10122926;29;20063;-89
2023/08/04 10:20:45;;;;;;;4.40;2.58;;;;;;;;;;10139491;29;20088;-89
2023/08/04 10:26:02;;;;;;;2.43;2.00;;;;;;;;;;10117233;29;20052;-90
2023/08/04 10:31:19;;;;;;;2.90;2.00;;;;;;;;;;10128509;29;20297;-90
2023/08/04 10:36:24;;;;;;;3.45;1.95;;;;;;;;;;10138025;29;20464;-90
2023/08/04 10:41:34;;;;;;;2.20;1.90;;;;;;;;;;10131862;29;20057;-93
2023/08/04 10:46:48;;;;;;;3.45;2.60;;;;;;;;;;10115469;29;20056;-90
2023/08/04 10:51:53;;;;;;;3.03;1.98;;;;;;;;;;10155903;29;20048;-89
2023/08/04 10:57:04;;;;;;;3.83;2.40;;;;;;;;;;10142388;29;20048;-90
2023/08/04 11:02:08;;;;;;;;;;;;;;;;;;10106261;29;20052;-90
2023/08/04 11:07:23;;;;;;;2.55;2.00;;;;;;;;;;10145097;29;19923;-90
2023/08/04 11:12:54;;;;;;;3.40;2.00;;;;;;;;;;10143850;29;20049;-90
2023/08/04 11:18:14;;;;;;;4.25;2.40;;;;;;;;;;10133907;29;20056;-90
2023/08/04 11:23:33;;;;;;;2.95;2.00;;;;;;;;;;10124173;29;20115;-91
2023/08/04 11:28:49;;;;;;;2.67;2.17;;;;;;;;;;10104452;29;20059;-91
2023/08/04 11:33:57;;;;;;;2.15;1.95;;;;;;;;;;10134839;29;20511;-89
2023/08/04 11:39:03;;;;;;;6.28;3.33;;;;;;;;;;10124926;29;20053;-90
2023/08/04 11:44:09;;;;;;;;;;;;;;;;;;10123052;29;20052;-90
2023/08/04 11:49:16;;;;;;;2.20;1.90;;;;;;;;;;10125650;29;20027;-89
2023/08/04 11:54:50;;;;;;;2.83;1.88;;;;;;;;;;10126519;29;20052;-90
2023/08/04 12:00:01;;;;;;;1.70;1.60;;;;;;;;;;10131207;29;20052;-89
2023/08/04 12:05:30;;;;;;;2.42;1.77;;;;;;;;;;10100874;29;20051;-89
2023/08/04 12:10:38;;;;;;;2.63;2.42;;;;;;;;;;10145317;29;20102;-89
2023/08/04 12:15:57;;;;;;;2.47;1.80;;;;;;;;;;10140316;29;20569;-88
2023/08/04 12:21:02;;;;;;;1.42;1.33;;;;;;;;;;10138756;29;20442;-88
2023/08/04 12:26:15;;;;;;;1.48;1.38;;;;;;;;;;10147976;29;20132;-88
2023/08/04 12:31:19;;;;;;;1.50;1.27;;;;;;;;;;10132453;29;20051;-88
2023/08/04 12:36:34;;;;;;;1.75;1.40;;;;;;;;;;10131992;29;20059;-89
2023/08/04 12:41:43;;;;;;;2.53;1.63;;;;;;;;;;10147175;29;20064;-88
2023/08/04 12:46:47;;;;;;;5.30;1.90;;;;;;;;;;10129922;29;20060;-89
2023/08/04 12:51:59;;;;;;;2.17;1.48;;;;;;;;;;10124041;29;20136;-89
2023/08/04 12:57:08;;;;;;;1.45;1.00;;;;;;;;;;10121633;29;20100;-91
2023/08/04 13:02:14;;;;;;;1.38;0.90;;;;;;;;;;10125944;29;20461;-89
2023/08/04 13:07:23;;;;;;;2.08;0.90;;;;;;;;;;10127108;29;20135;-88
2023/08/04 13:12:28;;;;;;;1.48;0.95;;;;;;;;;;10135169;29;20424;-88
2023/08/04 13:17:35;;;;;;;1.20;1.10;;;;;;;;;;10126176;29;20071;-89
2023/08/04 13:22:42;;;;;;;2.25;1.25;;;;;;;;;;10114058;29;20056;-88
2023/08/04 13:27:48;;;;;;;1.15;1.05;;;;;;;;;;10118909;29;20061;-88
2023/08/04 13:32:54;;;;;;;5.53;1.48;;;;;;;;;;10106399;29;20393;-89
2023/08/04 13:37:58;;;;;;;1.67;1.20;;;;;;;;;;10132685;29;20053;-88
2023/08/04 13:43:10;;;;;;;1.08;0.95;;;;;;;;;;10151848;29;20049;-90
2023/08/04 13:48:14;;;;;;;1.15;1.00;;;;;;;;;;10131746;29;20064;-90
2023/08/04 13:53:21;;;;;;;1.95;0.70;;;;;;;;;;10124716;29;20931;-88
2023/08/04 13:58:26;;;;;;;0.93;0.80;;;;;;;;;;10120682;29;20052;-92
2023/08/04 14:03:36;;;;;;;0.98;0.88;;;;;;;;;;10136298;29;20056;-89
2023/08/04 14:08:39;;;;;;;0.98;0.80;;;;;;;;;;10148667;29;20052;-90
2023/08/04 14:13:47;;;;;;;1.52;0.90;;;;;;;;;;10126267;29;20045;-89
2023/08/04 14:18:51;;;;;;;0.90;0.90;;;;;;;;;;10116626;29;20060;-88
2023/08/04 14:23:54;;;;;;;1.45;0.73;;;;;;;;;;10130731;29;20052;-91
2023/08/04 14:28:59;;;;;;;1.35;0.90;;;;;;;;;;10140043;29;20056;-88
2023/08/04 14:34:03;;;;;;;1.00;0.77;;;;;;;;;;10123792;29;20048;-90
2023/08/04 14:39:06;;;;;;;1.63;0.82;;;;;;;;;;10144586;29;20073;-88
2023/08/04 14:44:11;;;;;;;1.02;0.90;;;;;;;;;;10123978;29;20048;-88
2023/08/04 14:49:16;;;;;;;1.70;0.90;;;;;;;;;;10128570;29;20083;-90
2023/08/04 14:54:19;;;;;;;1.35;0.90;;;;;;;;;;10116775;29;20044;-87
2023/08/04 14:59:25;;;;;;;1.23;1.10;;;;;;;;;;10120618;29;20060;-89
2023/08/04 15:04:29;;;;;;;2.05;1.00;;;;;;;;;;10126488;29;20052;-90
2023/08/04 15:09:32;;;;;;;2.13;1.00;;;;;;;;;;10124271;29;20105;-88
2023/08/04 15:14:41;;;;;;;1.40;1.00;;;;;;;;;;10141254;29;20055;-88
2023/08/04 15:19:44;;;;;;;1.73;1.13;;;;;;;;;;10133124;29;20115;-88
2023/08/04 15:24:48;;;;;;;0.98;0.77;;;;;;;;;;10146304;29;20516;-90
2023/08/04 15:29:54;;;;;;;1.67;0.93;;;;;;;;;;10127676;29;20075;-88
2023/08/04 15:34:57;;;;;;;;;;;;;;;;;;10125204;29;20062;-88
2023/08/04 15:40:01;;;;;;;1.48;0.85;;;;;;;;;;10129750;29;19923;-88
2023/08/04 15:45:07;;;;;;;1.20;0.95;;;;;;;;;;10134707;29;20071;-91
2023/08/04 15:50:11;;;;;;;1.23;0.88;;;;;;;;;;10143407;29;20044;-88
2023/08/04 15:55:14;;;;;;;1.00;0.90;;;;;;;;;;10108580;29;20080;-88
2023/08/04 16:00:19;;;;;;;1.90;1.13;;;;;;;;;;10133849;29;20567;-87
2023/08/04 16:05:23;;;;;;;0.70;0.70;;;;;;;;;;10130442;29;20064;-89
2023/08/04 16:10:27;;;;;;;2.00;1.10;;;;;;;;;;10112953;29;20724;-89
2023/08/04 16:15:31;;;;;;;1.42;0.93;;;;;;;;;;10128499;29;20059;-85
2023/08/04 16:20:35;;;;;;;2.67;1.45;;;;;;;;;;10133783;29;20593;-87
2023/08/04 16:25:38;;;;;;;2.90;1.25;;;;;;;;;;10118200;29;20083;-87
2023/08/04 16:30:43;;;;;;;3.13;1.60;;;;;;;;;;10125582;29;20060;-87
2023/08/04 16:35:48;;;;;;;1.67;1.10;;;;;;;;;;10127608;29;20053;-91
2023/08/04 16:40:56;;;;;;;1.23;0.90;;;;;;;;;;10144784;29;20040;-87
2023/08/04 16:46:01;;;;;;;0.90;0.75;;;;;;;;;;10102545;29;20177;-86
2023/08/04 16:51:05;;;;;;;1.10;1.00;;;;;;;;;;10134405;29;20118;-86
2023/08/04 16:56:09;;;;;;;1.50;1.13;;;;;;;;;;10147956;29;20052;-86
2023/08/04 17:01:14;;;;;;;2.70;1.25;;;;;;;;;;10137160;29;20040;-88
2023/08/04 17:06:18;;;;;;;2.95;1.45;;;;;;;;;;10139310;29;20048;-87
2023/08/04 17:11:22;;;;;;;2.13;1.30;;;;;;;;;;10145213;29;20052;-87
2023/08/04 17:16:27;;;;;;;1.13;0.85;;;;;;;;;;10144430;29;20050;-87
2023/08/04 17:21:31;;;;;;;1.00;0.80;;;;;;;;;;10152809;29;20049;-87
2023/08/04 17:26:34;;;;;;;1.05;0.68;;;;;;;;;;10141550;29;20568;-85
2023/08/04 17:31:44;;;;;;;1.95;1.10;;;;;;;;;;10126120;29;20104;-85
2023/08/04 17:36:47;;;;;;;3.50;1.10;;;;;;;;;;10144422;29;20067;-85
2023/08/04 17:41:51;;;;;;;1.33;0.85;;;;;;;;;;10131391;29;20048;-85
2023/08/04 17:46:56;;;;;;;0.60;0.57;;;;;;;;;;10146404;29;20056;-84
2023/08/04 17:52:00;;;;;;;1.10;0.87;;;;;;;;;;10126580;29;20044;-85
2023/08/04 17:57:04;;;;;;;1.30;0.50;;;;;;;;;;10119804;29;20056;-85
2023/08/04 18:02:10;;;;;;;0.68;0.68;;;;;;;;;;10114118;29;20056;-85
2023/08/04 18:07:13;;;;;;;2.45;0.73;;;;;;;;;;10127118;29;20057;-85
2023/08/04 18:12:19;;;;;;;0.88;0.60;;;;;;;;;;10146466;29;20047;-85
2023/08/04 18:17:24;;;;;;;1.38;0.80;;;;;;;;;;10132210;29;20060;-85
2023/08/04 18:22:29;;;;;;;2.10;0.70;;;;;;;;;;10122897;29;20447;-85
2023/08/04 18:27:33;;;;;;;1.27;0.70;;;;;;;;;;10132160;29;20137;-84
2023/08/04 18:39:00;;;;;;;0.88;0.68;;;;;;;;;;10129003;29;20507;-85
2023/08/04 18:44:08;;;;;;;0.90;0.57;;;;;;;;;;10122187;29;20084;-85
2023/08/04 18:49:12;;;;;;;0.80;0.55;;;;;;;;;;10121763;29;20052;-87
2023/08/04 18:54:17;;;;;;;1.17;0.60;;;;;;;;;;10135282;29;20056;-89
2023/08/04 18:59:21;;;;;;;0.73;0.60;;;;;;;;;;10102621;29;20048;-88
2023/08/04 19:04:24;;;;;;;1.95;0.82;;;;;;;;;;10136152;29;20096;-87
2023/08/04 19:09:29;;;;;;;0.88;0.80;;;;;;;;;;10120709;29;20081;-90
2023/08/04 19:14:33;;;;;;;0.90;0.68;;;;;;;;;;10117651;29;20041;-87
2023/08/04 19:19:36;;;;;;;2.45;0.70;;;;;;;;;;10132138;29;20045;-90
2023/08/04 19:24:45;;;;;;;1.45;0.82;;;;;;;;;;10113290;29;20056;-87
2023/08/04 19:29:48;;;;;;;1.67;0.70;;;;;;;;;;10110088;29;20496;-87
2023/08/04 19:34:52;;;;;;;0.95;0.75;;;;;;;;;;10111088;29;20072;-89
2023/08/04 19:39:57;;;;;;;2.55;0.80;;;;;;;;;;10115546;29;20403;-88
2023/08/04 19:45:01;;;;;;;1.75;0.80;;;;;;;;;;10108872;29;20090;-88
2023/08/04 19:50:05;;;;;;;0.98;0.60;;;;;;;;;;10110474;29;20052;-90
2023/08/04 19:55:11;;;;;;;0.95;0.75;;;;;;;;;;10115548;29;20102;-89
2023/08/04 20:00:18;;;;;;;0.95;0.80;;;;;;;;;;10118668;29;20045;-88
2023/08/04 20:05:21;;;;;;;1.02;0.80;;;;;;;;;;10125451;29;20049;-87
2023/08/04 20:10:28;;;;;;;0.60;0.60;;;;;;;;;;10109340;29;20725;-88
2023/08/04 20:15:32;;;;;;;1.02;0.90;;;;;;;;;;10145439;29;20424;-87
2023/08/04 20:20:35;;;;;;;0.80;0.55;;;;;;;;;;10134314;29;20163;-88
2023/08/04 20:25:41;;;;;;;2.35;0.80;;;;;;;;;;10109599;29;20439;-89
2023/08/04 20:30:47;;;;;;;1.23;0.80;;;;;;;;;;10121884;29;20133;-88
2023/08/04 20:36:02;;;;;;;1.20;0.65;;;;;;;;;;10121245;29;20083;-88
2023/08/04 20:41:08;;;;;;;1.73;0.70;;;;;;;;;;10140413;29;20044;-87
2023/08/04 20:46:12;;;;;;;3.00;1.20;;;;;;;;;;10153949;29;20048;-88
2023/08/04 20:51:15;;;;;;;1.30;0.88;;;;;;;;;;10142264;29;20464;-88
2023/08/04 20:56:21;;;;;;;1.33;0.60;;;;;;;;;;10131696;29;20135;-89
2023/08/04 21:01:26;;;;;;;1.20;0.80;;;;;;;;;;10104251;29;20088;-90
2023/08/04 21:06:30;;;;;;;1.92;0.75;;;;;;;;;;10139524;29;21775;-88
2023/08/04 21:11:35;;;;;;;1.15;0.80;;;;;;;;;;10146605;29;20051;-88
2023/08/04 21:16:39;;;;;;;0.90;0.63;;;;;;;;;;10119877;29;20048;-91
2023/08/04 21:21:42;;;;;;;1.92;0.82;;;;;;;;;;10120698;29;20067;-89
2023/08/04 21:26:47;;;;;;;0.77;0.70;;;;;;;;;;10133045;29;20055;-88
2023/08/04 21:31:51;;;;;;;0.75;0.75;;;;;;;;;;10118681;29;20176;-90
2023/08/04 21:36:55;;;;;;;1.38;0.73;;;;;;;;;;10145923;29;20048;-89
2023/08/04 21:42:00;;;;;;;2.95;1.15;;;;;;;;;;10129280;29;20048;-90
2023/08/04 21:47:03;;;;;;;1.40;0.90;;;;;;;;;;10129281;29;20053;-89
2023/08/04 21:52:08;;;;;;;2.45;1.00;;;;;;;;;;10124808;29;20056;-89
2023/08/04 21:57:13;;;;;;;1.17;1.00;;;;;;;;;;10136793;29;20097;-88
2023/08/04 22:02:16;;;;;;;1.23;0.95;;;;;;;;;;10121383;29;20056;-88
2023/08/04 22:07:20;;;;;;;1.80;0.95;;;;;;;;;;10114657;29;20075;-89
2023/08/04 22:12:25;;;;;;;0.88;0.70;;;;;;;;;;10128798;29;20067;-87
2023/08/04 22:17:29;;;;;;;1.65;0.95;;;;;;;;;;10136914;29;20518;-88
2023/08/04 22:22:32;;;;;;;1.85;0.88;;;;;;;;;;10119190;29;20070;-91
2023/08/04 22:27:38;;;;;;;2.30;0.70;;;;;;;;;;10130002;29;20048;-86
2023/08/04 22:32:41;;;;;;;1.53;0.90;;;;;;;;;;10136820;29;20063;-89
2023/08/04 22:37:45;;;;;;;1.10;0.75;;;;;;;;;;10139820;29;20064;-88
2023/08/04 22:42:50;;;;;;;1.58;0.95;;;;;;;;;;10147091;29;20060;-88
2023/08/04 22:47:54;;;;;;;1.08;0.77;;;;;;;;;;10138659;29;20055;-88
2023/08/04 22:52:58;;;;;;;5.65;0.95;;;;;;;;;;10130520;29;20071;-88
2023/08/04 22:58:02;;;;;;;1.05;0.75;;;;;;;;;;10127462;29;20109;-89
2023/08/04 23:03:06;;;;;;;1.30;0.98;;;;;;;;;;10120987;29;20056;-88
2023/08/04 23:08:10;;;;;;;4.75;1.08;;;;;;;;;;10134858;29;20070;-89
2023/08/04 23:13:15;;;;;;;0.80;0.70;;;;;;;;;;10133905;29;20579;-88
2023/08/04 23:18:18;;;;;;;0.85;0.80;;;;;;;;;;10137867;29;20055;-88
2023/08/04 23:23:22;;;;;;;0.95;0.77;;;;;;;;;;10152435;29;20551;-86
2023/08/04 23:28:27;;;;;;;3.30;0.98;;;;;;;;;;10122349;29;20052;-86
2023/08/04 23:33:32;;;;;;;0.88;0.80;;;;;;;;;;10143112;29;20055;-86
2023/08/04 23:38:36;;;;;;;1.77;0.80;;;;;;;;;;10112136;29;20055;-86
2023/08/04 23:43:41;;;;;;;0.70;0.70;;;;;;;;;;10137011;29;20064;-86
2023/08/04 23:48:44;;;;;;;2.15;1.25;;;;;;;;;;10119786;29;20052;-89
2023/08/04 23:53:50;;;;;;;1.05;0.73;;;;;;;;;;10125342;29;20144;-88
2023/08/04 23:58:57;;;;;;;1.25;0.80;;;;;;;;;;10132467;29;20044;-89
